Warsaw, Poland

6:05 PM CEST on April 25, 2015 (GMT +0200)
Meteo W-wa Okecie | | Change Station
CLOSE
Current Station
Personal Weather Station
Location: Warszawa, MAZOWIECKIE
Elevation: 348 ft
Nearby Weather Stations

Elev 348 ft 52.18 °N, 20.97 °E | Updated 41 seconds ago

Clear
Clear
71.7 °F
Feels Like 77 °F
N
0.0
Wind Variable Wind from WNW
Gusts 0.0 mph

Today
High -- | Low -- °F
--% Chance of Precip.
Yesterday
High -- | Low -- °F
Precip. -- in
5:18 AM 7:50 PM
Waxing Crescent, 47% visible
Pressure 29.80 in
Visibility -9999.0 miles
Clouds
Heat Index 77 °F
Dew Point 45 °F
Humidity 39%
Rainfall -999.00 in
Snow Depth Not available.
UV Not available.
Pollen Not available.
Air Quality Not available.
Flu Activity Not available.
METAR EPWA 251600Z 23005KT 200V290 CAVOK 22/05 Q1009 NOSIG

More Conditions Fewer Conditions

Pressure 29.80 in
Visibility -9999.0 miles
Clouds
Heat Index 77 °F
Dew Point 45 °F
Humidity 39%
Rainfall -999.00 in
Snow Depth Not available.
UV Not available.
Pollen Not available.
Air Quality Not available.
Flu Activity Not available.
METAR EPWA 251600Z 23005KT 200V290 CAVOK 22/05 Q1009 NOSIG

More Conditions Fewer Conditions

10-Day Weather Forecast

Almanac

Astronomy

Apr. 25, 2015 Rise Set
Actual Time
Civil Twilight
Nautical Twilight
Astronomical Twilight
Moon
Length of Visible Light
Length of Day
Tomorrow will be .
, % of the Moon is Illuminated

Today's Extremes

Country Highs Country Lows

Community

WunderPhotos

Upload Photos

1,816,727 photos uploaded!

WunderBlogs® & News

Nearby

Air Quality

  Air Quality AQ Index Pollutant
Not available.

Snow Depth

Station Depth Elevation

Earthquake Activity

City Distance Mag. Time & Date
Minimum magnitude displayed is 2.5.

Coastal Water Temperatures

Place Temperature

Stations

Nearby Weather Stations

Station Location Temp. Windchill Dew Point Humidity Wind Precip. Elev Updated Type